sensor_id;sensor_type;location;lat;lon;timestamp;P1;durP1;ratioP1;P2;durP2;ratioP2
78131;SDS011;67381;47.672;9.380;2024-02-26T00:02:17;2.53;;;1.52;;
78131;SDS011;67381;47.672;9.380;2024-02-26T00:04:44;1.80;;;1.15;;
78131;SDS011;67381;47.672;9.380;2024-02-26T00:07:12;1.80;;;1.00;;
78131;SDS011;67381;47.672;9.380;2024-02-26T00:09:39;2.35;;;1.20;;
78131;SDS011;67381;47.672;9.380;2024-02-26T00:12:06;2.33;;;1.50;;
78131;SDS011;67381;47.672;9.380;2024-02-26T00:14:33;2.30;;;1.20;;
78131;SDS011;67381;47.672;9.380;2024-02-26T00:17:00;2.55;;;1.25;;
78131;SDS011;67381;47.672;9.380;2024-02-26T00:19:27;2.85;;;1.15;;
78131;SDS011;67381;47.672;9.380;2024-02-26T00:21:54;2.22;;;1.23;;
78131;SDS011;67381;47.672;9.380;2024-02-26T00:24:22;1.55;;;1.05;;
78131;SDS011;67381;47.672;9.380;2024-02-26T00:26:49;2.35;;;1.10;;
78131;SDS011;67381;47.672;9.380;2024-02-26T00:29:20;2.10;;;0.98;;
78131;SDS011;67381;47.672;9.380;2024-02-26T00:31:47;2.17;;;1.35;;
78131;SDS011;67381;47.672;9.380;2024-02-26T00:34:14;2.05;;;1.27;;
78131;SDS011;67381;47.672;9.380;2024-02-26T00:36:41;3.65;;;1.30;;
78131;SDS011;67381;47.672;9.380;2024-02-26T00:39:08;3.25;;;1.40;;
78131;SDS011;67381;47.672;9.380;2024-02-26T00:41:39;4.38;;;1.10;;
78131;SDS011;67381;47.672;9.380;2024-02-26T00:44:07;2.08;;;1.15;;
78131;SDS011;67381;47.672;9.380;2024-02-26T00:46:34;2.05;;;1.27;;
78131;SDS011;67381;47.672;9.380;2024-02-26T00:49:01;2.22;;;1.10;;
78131;SDS011;67381;47.672;9.380;2024-02-26T00:51:28;3.40;;;1.10;;
78131;SDS011;67381;47.672;9.380;2024-02-26T00:53:55;1.80;;;0.60;;
78131;SDS011;67381;47.672;9.380;2024-02-26T00:56:23;2.55;;;1.08;;
78131;SDS011;67381;47.672;9.380;2024-02-26T00:58:50;2.08;;;1.00;;
78131;SDS011;67381;47.672;9.380;2024-02-26T01:01:18;1.88;;;1.15;;
78131;SDS011;67381;47.672;9.380;2024-02-26T01:03:45;2.47;;;1.30;;
78131;SDS011;67381;47.672;9.380;2024-02-26T01:06:12;2.63;;;0.95;;
78131;SDS011;67381;47.672;9.380;2024-02-26T01:08:39;2.83;;;1.40;;
78131;SDS011;67381;47.672;9.380;2024-02-26T01:11:06;3.72;;;1.25;;
78131;SDS011;67381;47.672;9.380;2024-02-26T01:13:34;1.58;;;1.15;;
78131;SDS011;67381;47.672;9.380;2024-02-26T01:16:01;2.05;;;1.10;;
78131;SDS011;67381;47.672;9.380;2024-02-26T01:18:29;3.17;;;1.45;;
78131;SDS011;67381;47.672;9.380;2024-02-26T01:20:56;3.58;;;1.20;;
78131;SDS011;67381;47.672;9.380;2024-02-26T01:23:23;3.05;;;1.20;;
78131;SDS011;67381;47.672;9.380;2024-02-26T01:25:50;2.42;;;1.48;;
78131;SDS011;67381;47.672;9.380;2024-02-26T01:28:17;2.15;;;1.20;;
78131;SDS011;67381;47.672;9.380;2024-02-26T01:30:45;2.83;;;1.33;;
78131;SDS011;67381;47.672;9.380;2024-02-26T01:33:12;3.92;;;1.10;;
78131;SDS011;67381;47.672;9.380;2024-02-26T01:35:40;11.73;;;3.72;;
78131;SDS011;67381;47.672;9.380;2024-02-26T01:38:07;2.45;;;1.33;;
78131;SDS011;67381;47.672;9.380;2024-02-26T01:40:34;2.33;;;1.20;;
78131;SDS011;67381;47.672;9.380;2024-02-26T01:43:01;1.95;;;1.15;;
78131;SDS011;67381;47.672;9.380;2024-02-26T01:45:28;1.52;;;0.93;;
78131;SDS011;67381;47.672;9.380;2024-02-26T01:47:56;2.30;;;1.30;;
78131;SDS011;67381;47.672;9.380;2024-02-26T01:50:23;3.28;;;1.27;;
78131;SDS011;67381;47.672;9.380;2024-02-26T01:52:51;2.40;;;1.02;;
78131;SDS011;67381;47.672;9.380;2024-02-26T01:55:18;1.95;;;1.15;;
78131;SDS011;67381;47.672;9.380;2024-02-26T01:57:45;5.30;;;1.20;;
78131;SDS011;67381;47.672;9.380;2024-02-26T02:00:13;2.15;;;1.13;;
78131;SDS011;67381;47.672;9.380;2024-02-26T02:02:41;2.15;;;1.20;;
78131;SDS011;67381;47.672;9.380;2024-02-26T02:05:08;1.98;;;1.00;;
78131;SDS011;67381;47.672;9.380;2024-02-26T02:07:36;2.00;;;1.38;;
78131;SDS011;67381;47.672;9.380;2024-02-26T02:10:03;2.05;;;1.10;;
78131;SDS011;67381;47.672;9.380;2024-02-26T02:12:32;1.73;;;0.90;;
78131;SDS011;67381;47.672;9.380;2024-02-26T02:15:00;2.65;;;1.40;;
78131;SDS011;67381;47.672;9.380;2024-02-26T02:17:27;1.67;;;0.93;;
78131;SDS011;67381;47.672;9.380;2024-02-26T02:19:55;2.38;;;1.20;;
78131;SDS011;67381;47.672;9.380;2024-02-26T02:22:22;2.25;;;1.33;;
78131;SDS011;67381;47.672;9.380;2024-02-26T02:24:49;2.40;;;1.23;;
78131;SDS011;67381;47.672;9.380;2024-02-26T02:27:16;2.83;;;1.45;;
78131;SDS011;67381;47.672;9.380;2024-02-26T02:29:43;1.95;;;1.25;;
78131;SDS011;67381;47.672;9.380;2024-02-26T02:32:10;3.70;;;1.80;;
78131;SDS011;67381;47.672;9.380;2024-02-26T02:34:38;4.10;;;2.22;;
78131;SDS011;67381;47.672;9.380;2024-02-26T02:37:05;4.10;;;2.67;;
78131;SDS011;67381;47.672;9.380;2024-02-26T02:39:32;5.47;;;2.38;;
78131;SDS011;67381;47.672;9.380;2024-02-26T02:41:59;3.17;;;2.15;;
78131;SDS011;67381;47.672;9.380;2024-02-26T02:44:26;4.57;;;2.00;;
78131;SDS011;67381;47.672;9.380;2024-02-26T02:46:53;5.25;;;2.05;;
78131;SDS011;67381;47.672;9.380;2024-02-26T02:49:20;3.53;;;2.30;;
78131;SDS011;67381;47.672;9.380;2024-02-26T02:51:50;3.20;;;2.10;;
78131;SDS011;67381;47.672;9.380;2024-02-26T02:54:17;5.70;;;2.28;;
78131;SDS011;67381;47.672;9.380;2024-02-26T02:56:44;2.80;;;1.63;;
78131;SDS011;67381;47.672;9.380;2024-02-26T02:59:11;4.53;;;2.20;;
78131;SDS011;67381;47.672;9.380;2024-02-26T03:01:38;3.15;;;1.75;;
78131;SDS011;67381;47.672;9.380;2024-02-26T03:04:05;3.65;;;2.00;;
78131;SDS011;67381;47.672;9.380;2024-02-26T03:06:32;2.88;;;1.60;;
78131;SDS011;67381;47.672;9.380;2024-02-26T03:08:59;3.00;;;1.40;;
78131;SDS011;67381;47.672;9.380;2024-02-26T03:11:27;3.22;;;1.40;;
78131;SDS011;67381;47.672;9.380;2024-02-26T03:13:54;4.68;;;2.42;;
78131;SDS011;67381;47.672;9.380;2024-02-26T03:16:22;4.32;;;2.30;;
78131;SDS011;67381;47.672;9.380;2024-02-26T03:18:49;2.90;;;1.60;;
78131;SDS011;67381;47.672;9.380;2024-02-26T03:21:16;3.83;;;1.63;;
78131;SDS011;67381;47.672;9.380;2024-02-26T03:23:43;4.40;;;1.52;;
78131;SDS011;67381;47.672;9.380;2024-02-26T03:26:11;2.10;;;1.42;;
78131;SDS011;67381;47.672;9.380;2024-02-26T03:28:40;2.50;;;1.23;;
78131;SDS011;67381;47.672;9.380;2024-02-26T03:31:07;2.90;;;1.70;;
78131;SDS011;67381;47.672;9.380;2024-02-26T03:33:34;3.42;;;1.80;;
78131;SDS011;67381;47.672;9.380;2024-02-26T03:36:02;2.10;;;1.27;;
78131;SDS011;67381;47.672;9.380;2024-02-26T03:38:29;2.75;;;1.45;;
78131;SDS011;67381;47.672;9.380;2024-02-26T03:40:57;3.38;;;1.92;;
78131;SDS011;67381;47.672;9.380;2024-02-26T03:43:24;3.17;;;1.35;;
78131;SDS011;67381;47.672;9.380;2024-02-26T03:45:52;3.90;;;2.20;;
78131;SDS011;67381;47.672;9.380;2024-02-26T03:48:19;2.70;;;1.55;;
78131;SDS011;67381;47.672;9.380;2024-02-26T03:50:46;3.13;;;1.75;;
78131;SDS011;67381;47.672;9.380;2024-02-26T03:53:13;3.85;;;1.70;;
78131;SDS011;67381;47.672;9.380;2024-02-26T03:55:40;5.32;;;1.73;;
78131;SDS011;67381;47.672;9.380;2024-02-26T03:58:08;2.42;;;1.60;;
78131;SDS011;67381;47.672;9.380;2024-02-26T04:00:36;4.25;;;1.60;;
78131;SDS011;67381;47.672;9.380;2024-02-26T04:03:03;2.65;;;1.33;;
78131;SDS011;67381;47.672;9.380;2024-02-26T04:05:30;3.33;;;1.55;;
78131;SDS011;67381;47.672;9.380;2024-02-26T04:07:57;3.75;;;1.48;;
78131;SDS011;67381;47.672;9.380;2024-02-26T04:10:25;2.60;;;1.50;;
78131;SDS011;67381;47.672;9.380;2024-02-26T04:12:53;3.75;;;1.50;;
78131;SDS011;67381;47.672;9.380;2024-02-26T04:15:21;3.30;;;2.22;;
78131;SDS011;67381;47.672;9.380;2024-02-26T04:17:49;3.00;;;1.75;;
78131;SDS011;67381;47.672;9.380;2024-02-26T04:20:16;2.63;;;1.70;;
78131;SDS011;67381;47.672;9.380;2024-02-26T04:22:44;3.50;;;1.60;;
78131;SDS011;67381;47.672;9.380;2024-02-26T04:25:11;3.80;;;1.80;;
78131;SDS011;67381;47.672;9.380;2024-02-26T04:27:38;3.50;;;1.45;;
78131;SDS011;67381;47.672;9.380;2024-02-26T04:30:06;2.70;;;1.23;;
78131;SDS011;67381;47.672;9.380;2024-02-26T04:32:33;2.20;;;1.25;;
78131;SDS011;67381;47.672;9.380;2024-02-26T04:35:02;3.90;;;1.42;;
78131;SDS011;67381;47.672;9.380;2024-02-26T04:37:29;2.45;;;1.63;;
78131;SDS011;67381;47.672;9.380;2024-02-26T04:40:01;4.38;;;1.90;;
78131;SDS011;67381;47.672;9.380;2024-02-26T04:42:28;3.08;;;1.55;;
78131;SDS011;67381;47.672;9.380;2024-02-26T04:44:55;2.92;;;1.90;;
78131;SDS011;67381;47.672;9.380;2024-02-26T04:47:22;2.65;;;1.65;;
78131;SDS011;67381;47.672;9.380;2024-02-26T04:49:49;2.90;;;1.48;;
78131;SDS011;67381;47.672;9.380;2024-02-26T04:52:17;3.85;;;2.40;;
78131;SDS011;67381;47.672;9.380;2024-02-26T04:54:44;3.10;;;2.08;;
78131;SDS011;67381;47.672;9.380;2024-02-26T04:57:14;2.72;;;1.67;;
78131;SDS011;67381;47.672;9.380;2024-02-26T04:59:41;2.58;;;1.70;;
78131;SDS011;67381;47.672;9.380;2024-02-26T05:02:09;2.90;;;1.52;;
78131;SDS011;67381;47.672;9.380;2024-02-26T05:04:36;3.50;;;2.05;;
78131;SDS011;67381;47.672;9.380;2024-02-26T05:07:03;3.50;;;2.08;;
78131;SDS011;67381;47.672;9.380;2024-02-26T05:09:31;3.10;;;1.88;;
78131;SDS011;67381;47.672;9.380;2024-02-26T05:11:58;4.07;;;2.25;;
78131;SDS011;67381;47.672;9.380;2024-02-26T05:14:25;3.17;;;1.90;;
78131;SDS011;67381;47.672;9.380;2024-02-26T05:16:52;2.72;;;1.80;;
78131;SDS011;67381;47.672;9.380;2024-02-26T05:19:19;3.42;;;2.25;;
78131;SDS011;67381;47.672;9.380;2024-02-26T05:21:47;4.55;;;1.65;;
78131;SDS011;67381;47.672;9.380;2024-02-26T05:24:16;3.97;;;2.17;;
78131;SDS011;67381;47.672;9.380;2024-02-26T05:26:45;3.45;;;1.58;;
78131;SDS011;67381;47.672;9.380;2024-02-26T05:29:12;3.45;;;2.05;;
78131;SDS011;67381;47.672;9.380;2024-02-26T05:31:39;4.05;;;1.90;;
78131;SDS011;67381;47.672;9.380;2024-02-26T05:34:06;3.75;;;1.85;;
78131;SDS011;67381;47.672;9.380;2024-02-26T05:36:33;3.20;;;1.90;;
78131;SDS011;67381;47.672;9.380;2024-02-26T05:39:00;4.70;;;2.03;;
78131;SDS011;67381;47.672;9.380;2024-02-26T05:41:28;3.17;;;1.50;;
78131;SDS011;67381;47.672;9.380;2024-02-26T05:43:55;3.28;;;1.85;;
78131;SDS011;67381;47.672;9.380;2024-02-26T05:46:22;3.47;;;1.50;;
78131;SDS011;67381;47.672;9.380;2024-02-26T05:48:50;4.30;;;1.83;;
78131;SDS011;67381;47.672;9.380;2024-02-26T05:51:18;5.13;;;2.00;;
78131;SDS011;67381;47.672;9.380;2024-02-26T05:53:45;3.30;;;1.70;;
78131;SDS011;67381;47.672;9.380;2024-02-26T05:56:13;5.72;;;2.00;;
78131;SDS011;67381;47.672;9.380;2024-02-26T05:58:40;3.25;;;1.80;;
78131;SDS011;67381;47.672;9.380;2024-02-26T06:01:07;3.35;;;1.88;;
78131;SDS011;67381;47.672;9.380;2024-02-26T06:03:34;3.67;;;2.38;;
78131;SDS011;67381;47.672;9.380;2024-02-26T06:06:01;2.75;;;1.50;;
78131;SDS011;67381;47.672;9.380;2024-02-26T06:08:29;3.97;;;2.05;;
78131;SDS011;67381;47.672;9.380;2024-02-26T06:10:56;3.90;;;2.25;;
78131;SDS011;67381;47.672;9.380;2024-02-26T06:13:23;4.50;;;2.00;;
78131;SDS011;67381;47.672;9.380;2024-02-26T06:15:50;4.00;;;2.17;;
78131;SDS011;67381;47.672;9.380;2024-02-26T06:18:17;5.03;;;2.22;;
78131;SDS011;67381;47.672;9.380;2024-02-26T06:20:44;3.65;;;1.35;;
78131;SDS011;67381;47.672;9.380;2024-02-26T06:23:13;3.10;;;1.73;;
78131;SDS011;67381;47.672;9.380;2024-02-26T06:25:40;2.60;;;1.60;;
78131;SDS011;67381;47.672;9.380;2024-02-26T06:28:09;3.10;;;1.98;;
78131;SDS011;67381;47.672;9.380;2024-02-26T06:30:36;3.13;;;1.90;;
78131;SDS011;67381;47.672;9.380;2024-02-26T06:33:03;4.60;;;1.50;;
78131;SDS011;67381;47.672;9.380;2024-02-26T06:35:30;3.05;;;1.80;;
78131;SDS011;67381;47.672;9.380;2024-02-26T06:37:57;3.33;;;1.90;;
78131;SDS011;67381;47.672;9.380;2024-02-26T06:40:24;3.22;;;1.63;;
78131;SDS011;67381;47.672;9.380;2024-02-26T06:42:52;3.65;;;2.03;;
78131;SDS011;67381;47.672;9.380;2024-02-26T06:45:19;4.18;;;1.85;;
78131;SDS011;67381;47.672;9.380;2024-02-26T06:47:46;3.47;;;1.70;;
78131;SDS011;67381;47.672;9.380;2024-02-26T06:50:13;4.93;;;1.80;;
78131;SDS011;67381;47.672;9.380;2024-02-26T06:52:40;3.28;;;2.13;;
78131;SDS011;67381;47.672;9.380;2024-02-26T06:55:08;5.10;;;1.25;;
78131;SDS011;67381;47.672;9.380;2024-02-26T06:57:35;4.43;;;2.05;;
78131;SDS011;67381;47.672;9.380;2024-02-26T07:00:03;3.05;;;1.65;;
78131;SDS011;67381;47.672;9.380;2024-02-26T07:02:31;4.85;;;1.73;;
78131;SDS011;67381;47.672;9.380;2024-02-26T07:04:58;6.20;;;2.30;;
78131;SDS011;67381;47.672;9.380;2024-02-26T07:07:25;3.13;;;1.50;;
78131;SDS011;67381;47.672;9.380;2024-02-26T07:09:52;4.03;;;1.65;;
78131;SDS011;67381;47.672;9.380;2024-02-26T07:12:19;3.28;;;2.05;;
78131;SDS011;67381;47.672;9.380;2024-02-26T07:14:48;3.45;;;1.85;;
78131;SDS011;67381;47.672;9.380;2024-02-26T07:17:16;3.75;;;2.33;;
78131;SDS011;67381;47.672;9.380;2024-02-26T07:19:43;3.15;;;1.60;;
78131;SDS011;67381;47.672;9.380;2024-02-26T07:22:10;4.47;;;2.08;;
78131;SDS011;67381;47.672;9.380;2024-02-26T07:24:37;7.07;;;2.13;;
78131;SDS011;67381;47.672;9.380;2024-02-26T07:27:04;5.95;;;2.03;;
78131;SDS011;67381;47.672;9.380;2024-02-26T07:29:32;5.18;;;2.10;;
78131;SDS011;67381;47.672;9.380;2024-02-26T07:31:59;4.43;;;2.10;;
78131;SDS011;67381;47.672;9.380;2024-02-26T07:34:26;4.13;;;2.10;;
78131;SDS011;67381;47.672;9.380;2024-02-26T07:36:56;5.22;;;2.13;;
78131;SDS011;67381;47.672;9.380;2024-02-26T07:39:23;2.72;;;1.73;;
78131;SDS011;67381;47.672;9.380;2024-02-26T07:41:50;5.03;;;1.80;;
78131;SDS011;67381;47.672;9.380;2024-02-26T07:44:19;6.18;;;2.25;;
78131;SDS011;67381;47.672;9.380;2024-02-26T07:46:47;4.95;;;2.40;;
78131;SDS011;67381;47.672;9.380;2024-02-26T07:49:14;3.85;;;2.10;;
78131;SDS011;67381;47.672;9.380;2024-02-26T07:51:41;4.50;;;2.25;;
78131;SDS011;67381;47.672;9.380;2024-02-26T07:54:08;4.13;;;2.15;;
78131;SDS011;67381;47.672;9.380;2024-02-26T07:56:35;5.53;;;2.20;;
78131;SDS011;67381;47.672;9.380;2024-02-26T07:59:02;3.65;;;1.80;;
78131;SDS011;67381;47.672;9.380;2024-02-26T08:01:29;3.80;;;1.65;;
78131;SDS011;67381;47.672;9.380;2024-02-26T08:03:57;4.10;;;1.75;;
78131;SDS011;67381;47.672;9.380;2024-02-26T08:06:25;3.50;;;2.08;;
78131;SDS011;67381;47.672;9.380;2024-02-26T08:08:52;3.67;;;2.10;;
78131;SDS011;67381;47.672;9.380;2024-02-26T08:11:21;7.78;;;2.28;;
78131;SDS011;67381;47.672;9.380;2024-02-26T08:13:48;6.32;;;2.72;;
78131;SDS011;67381;47.672;9.380;2024-02-26T08:16:15;7.78;;;2.47;;
78131;SDS011;67381;47.672;9.380;2024-02-26T08:18:43;5.00;;;2.53;;
78131;SDS011;67381;47.672;9.380;2024-02-26T08:21:10;5.53;;;2.42;;
78131;SDS011;67381;47.672;9.380;2024-02-26T08:23:37;6.15;;;2.38;;
78131;SDS011;67381;47.672;9.380;2024-02-26T08:26:04;4.82;;;2.13;;
78131;SDS011;67381;47.672;9.380;2024-02-26T08:28:33;8.90;;;2.92;;
78131;SDS011;67381;47.672;9.380;2024-02-26T08:31:01;4.93;;;2.63;;
78131;SDS011;67381;47.672;9.380;2024-02-26T08:33:28;6.18;;;2.20;;
78131;SDS011;67381;47.672;9.380;2024-02-26T08:35:55;3.97;;;2.35;;
78131;SDS011;67381;47.672;9.380;2024-02-26T08:38:22;3.80;;;2.17;;
78131;SDS011;67381;47.672;9.380;2024-02-26T08:40:49;4.95;;;2.40;;
78131;SDS011;67381;47.672;9.380;2024-02-26T08:43:16;3.75;;;2.55;;
78131;SDS011;67381;47.672;9.380;2024-02-26T08:45:44;4.50;;;2.70;;
78131;SDS011;67381;47.672;9.380;2024-02-26T08:48:11;6.60;;;3.67;;
78131;SDS011;67381;47.672;9.380;2024-02-26T08:50:38;4.28;;;3.00;;
78131;SDS011;67381;47.672;9.380;2024-02-26T08:53:05;5.47;;;2.95;;
78131;SDS011;67381;47.672;9.380;2024-02-26T08:55:34;6.38;;;2.90;;
78131;SDS011;67381;47.672;9.380;2024-02-26T08:58:01;5.47;;;2.80;;
78131;SDS011;67381;47.672;9.380;2024-02-26T09:00:28;4.68;;;2.92;;
78131;SDS011;67381;47.672;9.380;2024-02-26T09:02:55;5.20;;;2.65;;
78131;SDS011;67381;47.672;9.380;2024-02-26T09:05:22;5.82;;;2.97;;
78131;SDS011;67381;47.672;9.380;2024-02-26T09:07:49;4.70;;;2.33;;
78131;SDS011;67381;47.672;9.380;2024-02-26T09:10:18;4.82;;;2.97;;
78131;SDS011;67381;47.672;9.380;2024-02-26T09:12:45;4.93;;;3.17;;
78131;SDS011;67381;47.672;9.380;2024-02-26T09:15:12;4.88;;;3.05;;
78131;SDS011;67381;47.672;9.380;2024-02-26T09:17:40;5.22;;;3.17;;
78131;SDS011;67381;47.672;9.380;2024-02-26T09:20:07;4.65;;;2.72;;
78131;SDS011;67381;47.672;9.380;2024-02-26T09:22:36;3.80;;;2.67;;
78131;SDS011;67381;47.672;9.380;2024-02-26T09:25:04;4.75;;;2.70;;
78131;SDS011;67381;47.672;9.380;2024-02-26T09:27:32;5.20;;;3.35;;
78131;SDS011;67381;47.672;9.380;2024-02-26T09:29:59;4.03;;;2.55;;
78131;SDS011;67381;47.672;9.380;2024-02-26T09:32:26;3.97;;;2.47;;
78131;SDS011;67381;47.672;9.380;2024-02-26T09:34:53;7.07;;;2.35;;
78131;SDS011;67381;47.672;9.380;2024-02-26T09:37:20;3.75;;;2.28;;
78131;SDS011;67381;47.672;9.380;2024-02-26T09:39:47;3.95;;;2.08;;
78131;SDS011;67381;47.672;9.380;2024-02-26T09:42:15;3.30;;;2.20;;
78131;SDS011;67381;47.672;9.380;2024-02-26T09:44:44;3.83;;;1.73;;
78131;SDS011;67381;47.672;9.380;2024-02-26T09:47:14;3.30;;;2.03;;
78131;SDS011;67381;47.672;9.380;2024-02-26T09:49:43;4.72;;;1.60;;
78131;SDS011;67381;47.672;9.380;2024-02-26T09:52:11;3.72;;;2.00;;
78131;SDS011;67381;47.672;9.380;2024-02-26T09:54:38;7.63;;;3.10;;
78131;SDS011;67381;47.672;9.380;2024-02-26T09:57:06;5.50;;;3.33;;
78131;SDS011;67381;47.672;9.380;2024-02-26T09:59:41;5.10;;;3.55;;
78131;SDS011;67381;47.672;9.380;2024-02-26T10:02:09;5.38;;;3.72;;
78131;SDS011;67381;47.672;9.380;2024-02-26T10:04:39;4.95;;;3.17;;
78131;SDS011;67381;47.672;9.380;2024-02-26T10:07:10;6.50;;;3.35;;
78131;SDS011;67381;47.672;9.380;2024-02-26T10:09:37;5.32;;;3.00;;
78131;SDS011;67381;47.672;9.380;2024-02-26T10:12:04;5.50;;;3.25;;
78131;SDS011;67381;47.672;9.380;2024-02-26T10:14:32;5.20;;;3.20;;
78131;SDS011;67381;47.672;9.380;2024-02-26T10:16:59;4.35;;;2.78;;
78131;SDS011;67381;47.672;9.380;2024-02-26T10:19:28;4.70;;;3.03;;
78131;SDS011;67381;47.672;9.380;2024-02-26T10:22:00;5.30;;;2.47;;
78131;SDS011;67381;47.672;9.380;2024-02-26T10:24:28;4.63;;;2.95;;
78131;SDS011;67381;47.672;9.380;2024-02-26T10:26:56;4.50;;;2.78;;
78131;SDS011;67381;47.672;9.380;2024-02-26T10:29:24;6.13;;;3.13;;
78131;SDS011;67381;47.672;9.380;2024-02-26T10:31:51;5.55;;;2.10;;
78131;SDS011;67381;47.672;9.380;2024-02-26T10:34:19;4.72;;;2.67;;
78131;SDS011;67381;47.672;9.380;2024-02-26T10:36:46;5.72;;;2.85;;
78131;SDS011;67381;47.672;9.380;2024-02-26T10:39:14;3.85;;;2.63;;
78131;SDS011;67381;47.672;9.380;2024-02-26T10:41:41;4.82;;;3.13;;
78131;SDS011;67381;47.672;9.380;2024-02-26T10:44:09;6.70;;;3.35;;
78131;SDS011;67381;47.672;9.380;2024-02-26T10:46:37;6.45;;;3.05;;
78131;SDS011;67381;47.672;9.380;2024-02-26T10:49:04;4.38;;;2.42;;
78131;SDS011;67381;47.672;9.380;2024-02-26T10:51:33;6.70;;;3.22;;
78131;SDS011;67381;47.672;9.380;2024-02-26T10:54:01;4.40;;;2.70;;
78131;SDS011;67381;47.672;9.380;2024-02-26T10:56:32;5.68;;;2.63;;
78131;SDS011;67381;47.672;9.380;2024-02-26T10:59:00;5.43;;;2.92;;
78131;SDS011;67381;47.672;9.380;2024-02-26T11:01:28;5.50;;;2.78;;
78131;SDS011;67381;47.672;9.380;2024-02-26T11:04:00;4.43;;;2.65;;
78131;SDS011;67381;47.672;9.380;2024-02-26T11:06:28;4.72;;;2.97;;
78131;SDS011;67381;47.672;9.380;2024-02-26T11:08:55;4.40;;;2.67;;
78131;SDS011;67381;47.672;9.380;2024-02-26T11:11:23;4.45;;;2.85;;
78131;SDS011;67381;47.672;9.380;2024-02-26T11:13:50;4.07;;;2.15;;
78131;SDS011;67381;47.672;9.380;2024-02-26T11:16:18;4.68;;;3.13;;
78131;SDS011;67381;47.672;9.380;2024-02-26T11:18:46;7.38;;;3.00;;
78131;SDS011;67381;47.672;9.380;2024-02-26T11:21:15;4.50;;;2.97;;
78131;SDS011;67381;47.672;9.380;2024-02-26T11:23:42;4.47;;;2.63;;
78131;SDS011;67381;47.672;9.380;2024-02-26T11:26:09;4.55;;;3.10;;
78131;SDS011;67381;47.672;9.380;2024-02-26T11:28:38;7.68;;;3.13;;
78131;SDS011;67381;47.672;9.380;2024-02-26T11:31:05;6.28;;;4.20;;
78131;SDS011;67381;47.672;9.380;2024-02-26T11:33:34;4.68;;;3.03;;
78131;SDS011;67381;47.672;9.380;2024-02-26T11:36:07;4.75;;;2.92;;
78131;SDS011;67381;47.672;9.380;2024-02-26T11:38:35;4.75;;;2.53;;
78131;SDS011;67381;47.672;9.380;2024-02-26T11:41:02;6.10;;;2.83;;
78131;SDS011;67381;47.672;9.380;2024-02-26T11:43:49;6.13;;;3.55;;
78131;SDS011;67381;47.672;9.380;2024-02-26T11:46:50;4.38;;;3.05;;
78131;SDS011;67381;47.672;9.380;2024-02-26T11:51:57;4.50;;;2.85;;
78131;SDS011;67381;47.672;9.380;2024-02-26T12:00:17;2.97;;;2.10;;
78131;SDS011;67381;47.672;9.380;2024-02-26T12:02:49;3.67;;;2.30;;
78131;SDS011;67381;47.672;9.380;2024-02-26T12:05:21;7.28;;;2.83;;
78131;SDS011;67381;47.672;9.380;2024-02-26T12:08:08;4.15;;;2.45;;
78131;SDS011;67381;47.672;9.380;2024-02-26T12:10:36;4.03;;;2.58;;
78131;SDS011;67381;47.672;9.380;2024-02-26T12:13:10;5.43;;;2.33;;
78131;SDS011;67381;47.672;9.380;2024-02-26T12:15:44;6.25;;;2.63;;
78131;SDS011;67381;47.672;9.380;2024-02-26T12:18:17;5.78;;;2.42;;
78131;SDS011;67381;47.672;9.380;2024-02-26T12:20:44;3.55;;;2.15;;
78131;SDS011;67381;47.672;9.380;2024-02-26T12:23:16;3.25;;;2.00;;
78131;SDS011;67381;47.672;9.380;2024-02-26T12:25:46;4.20;;;2.42;;
78131;SDS011;67381;47.672;9.380;2024-02-26T12:28:15;6.32;;;2.78;;
78131;SDS011;67381;47.672;9.380;2024-02-26T12:30:42;3.92;;;2.45;;
78131;SDS011;67381;47.672;9.380;2024-02-26T12:33:09;5.88;;;1.92;;
78131;SDS011;67381;47.672;9.380;2024-02-26T12:35:36;4.80;;;2.35;;
78131;SDS011;67381;47.672;9.380;2024-02-26T12:38:03;4.75;;;1.83;;
78131;SDS011;67381;47.672;9.380;2024-02-26T12:40:31;4.18;;;2.38;;
78131;SDS011;67381;47.672;9.380;2024-02-26T12:42:58;4.00;;;2.28;;
78131;SDS011;67381;47.672;9.380;2024-02-26T12:45:25;4.57;;;2.50;;
78131;SDS011;67381;47.672;9.380;2024-02-26T12:47:53;3.70;;;2.25;;
78131;SDS011;67381;47.672;9.380;2024-02-26T12:50:20;6.35;;;2.22;;
78131;SDS011;67381;47.672;9.380;2024-02-26T12:52:47;3.78;;;2.10;;
78131;SDS011;67381;47.672;9.380;2024-02-26T12:55:15;4.30;;;2.25;;
78131;SDS011;67381;47.672;9.380;2024-02-26T12:57:43;4.60;;;2.72;;
78131;SDS011;67381;47.672;9.380;2024-02-26T13:00:24;5.60;;;2.88;;
78131;SDS011;67381;47.672;9.380;2024-02-26T13:02:52;5.20;;;2.85;;
78131;SDS011;67381;47.672;9.380;2024-02-26T13:05:21;6.28;;;2.95;;
78131;SDS011;67381;47.672;9.380;2024-02-26T13:07:49;5.75;;;2.80;;
78131;SDS011;67381;47.672;9.380;2024-02-26T13:10:18;5.25;;;2.97;;
78131;SDS011;67381;47.672;9.380;2024-02-26T13:12:49;4.15;;;2.33;;
78131;SDS011;67381;47.672;9.380;2024-02-26T13:15:20;3.90;;;2.22;;
78131;SDS011;67381;47.672;9.380;2024-02-26T13:17:48;7.38;;;2.10;;
78131;SDS011;67381;47.672;9.380;2024-02-26T13:20:28;4.25;;;2.10;;
78131;SDS011;67381;47.672;9.380;2024-02-26T13:23:02;6.80;;;2.25;;
78131;SDS011;67381;47.672;9.380;2024-02-26T13:25:29;6.18;;;2.35;;
78131;SDS011;67381;47.672;9.380;2024-02-26T13:30:33;5.10;;;3.03;;
78131;SDS011;67381;47.672;9.380;2024-02-26T13:33:09;4.78;;;2.17;;
78131;SDS011;67381;47.672;9.380;2024-02-26T13:35:37;4.05;;;2.45;;
78131;SDS011;67381;47.672;9.380;2024-02-26T13:38:05;5.25;;;3.08;;
78131;SDS011;67381;47.672;9.380;2024-02-26T13:40:33;5.53;;;2.97;;
78131;SDS011;67381;47.672;9.380;2024-02-26T13:43:03;3.90;;;2.33;;
78131;SDS011;67381;47.672;9.380;2024-02-26T13:45:30;4.75;;;2.55;;
78131;SDS011;67381;47.672;9.380;2024-02-26T13:48:06;4.80;;;2.40;;
78131;SDS011;67381;47.672;9.380;2024-02-26T13:50:34;5.15;;;2.40;;
78131;SDS011;67381;47.672;9.380;2024-02-26T13:53:02;5.32;;;2.88;;
78131;SDS011;67381;47.672;9.380;2024-02-26T13:55:29;4.95;;;2.95;;
78131;SDS011;67381;47.672;9.380;2024-02-26T13:57:59;3.90;;;2.42;;
78131;SDS011;67381;47.672;9.380;2024-02-26T14:00:28;4.90;;;2.72;;
78131;SDS011;67381;47.672;9.380;2024-02-26T14:02:56;4.60;;;2.58;;
78131;SDS011;67381;47.672;9.380;2024-02-26T14:05:23;7.78;;;3.78;;
78131;SDS011;67381;47.672;9.380;2024-02-26T14:07:50;5.13;;;2.38;;
78131;SDS011;67381;47.672;9.380;2024-02-26T14:10:18;5.15;;;2.63;;
78131;SDS011;67381;47.672;9.380;2024-02-26T14:12:45;3.95;;;2.28;;
78131;SDS011;67381;47.672;9.380;2024-02-26T14:15:12;4.80;;;2.42;;
78131;SDS011;67381;47.672;9.380;2024-02-26T14:17:39;6.32;;;2.30;;
78131;SDS011;67381;47.672;9.380;2024-02-26T14:20:06;5.57;;;2.15;;
78131;SDS011;67381;47.672;9.380;2024-02-26T14:22:34;4.68;;;2.90;;
78131;SDS011;67381;47.672;9.380;2024-02-26T14:25:01;7.35;;;3.85;;
78131;SDS011;67381;47.672;9.380;2024-02-26T14:27:29;5.32;;;2.75;;
78131;SDS011;67381;47.672;9.380;2024-02-26T14:29:56;5.22;;;3.40;;
78131;SDS011;67381;47.672;9.380;2024-02-26T14:32:23;10.88;;;4.60;;
78131;SDS011;67381;47.672;9.380;2024-02-26T14:34:50;5.78;;;3.05;;
78131;SDS011;67381;47.672;9.380;2024-02-26T14:37:17;6.28;;;2.80;;
78131;SDS011;67381;47.672;9.380;2024-02-26T14:39:44;4.10;;;2.45;;
78131;SDS011;67381;47.672;9.380;2024-02-26T14:42:13;5.30;;;2.85;;
78131;SDS011;67381;47.672;9.380;2024-02-26T14:44:44;4.43;;;2.65;;
78131;SDS011;67381;47.672;9.380;2024-02-26T14:47:11;6.07;;;2.35;;
78131;SDS011;67381;47.672;9.380;2024-02-26T14:49:38;6.03;;;3.33;;
78131;SDS011;67381;47.672;9.380;2024-02-26T14:52:05;8.82;;;2.90;;
78131;SDS011;67381;47.672;9.380;2024-02-26T14:54:32;5.05;;;3.00;;
78131;SDS011;67381;47.672;9.380;2024-02-26T14:57:04;5.20;;;2.42;;
78131;SDS011;67381;47.672;9.380;2024-02-26T14:59:32;6.60;;;2.88;;
78131;SDS011;67381;47.672;9.380;2024-02-26T15:01:59;5.88;;;3.33;;
78131;SDS011;67381;47.672;9.380;2024-02-26T15:04:26;10.88;;;2.80;;